createdAt,value
2018-04-22T00:01:53.345Z,30.57
2018-04-22T00:04:19.765Z,38.17
2018-04-22T00:06:46.148Z,33.47
2018-04-22T00:09:12.562Z,35.57
2018-04-22T00:11:38.932Z,33.87
2018-04-22T00:14:05.354Z,32.93
2018-04-22T00:16:31.769Z,38.00
2018-04-22T00:18:58.205Z,37.73
2018-04-22T00:21:24.637Z,39.40
2018-04-22T00:23:51.049Z,34.57
2018-04-22T00:26:17.422Z,36.23
2018-04-22T00:28:44.548Z,34.20
2018-04-22T00:31:10.999Z,34.90
2018-04-22T00:33:38.129Z,31.97
2018-04-22T00:36:04.534Z,36.80
2018-04-22T00:38:30.942Z,38.83
2018-04-22T00:40:58.053Z,34.37
2018-04-22T00:43:24.444Z,31.77
2018-04-22T00:45:50.926Z,32.70
2018-04-22T00:48:18.168Z,36.47
2018-04-22T00:50:44.648Z,36.33
2018-04-22T00:53:11.124Z,42.27
2018-04-22T00:55:37.527Z,37.07
2018-04-22T00:58:03.918Z,38.30
2018-04-22T01:00:31.080Z,37.33
2018-04-22T01:02:57.477Z,38.20
2018-04-22T01:05:23.866Z,38.40
2018-04-22T01:07:50.274Z,45.33
2018-04-22T01:10:17.394Z,37.30
2018-04-22T01:12:43.831Z,37.30
2018-04-22T01:15:11.005Z,40.97
2018-04-22T01:17:37.517Z,38.43
2018-04-22T01:20:03.931Z,40.00
2018-04-22T01:22:30.396Z,37.80
2018-04-22T01:24:56.793Z,42.10
2018-04-22T01:27:23.193Z,39.23
2018-04-22T01:29:49.610Z,34.57
2018-04-22T01:32:17.442Z,38.87
2018-04-22T01:34:43.846Z,34.03
2018-04-22T01:37:10.264Z,38.83
2018-04-22T01:39:36.655Z,45.80
2018-04-22T01:42:03.198Z,38.80
2018-04-22T01:44:29.617Z,39.33
2018-04-22T01:46:56.001Z,37.30
2018-04-22T01:49:22.448Z,44.03
2018-04-22T01:51:48.859Z,38.50
2018-04-22T01:54:15.286Z,40.60
2018-04-22T01:56:41.689Z,37.00
2018-04-22T01:59:09.700Z,35.60
2018-04-22T02:01:36.107Z,36.53
2018-04-22T02:04:03.238Z,46.23
2018-04-22T02:06:29.675Z,40.20
2018-04-22T02:08:56.114Z,38.33
2018-04-22T02:11:23.237Z,41.07
2018-04-22T02:13:49.677Z,37.57
2018-04-22T02:16:16.055Z,41.93
2018-04-22T02:18:42.548Z,38.20
2018-04-22T02:21:09.069Z,42.30
2018-04-22T02:23:35.516Z,39.40
2018-04-22T02:26:01.941Z,36.63
2018-04-22T02:28:28.380Z,37.03
2018-04-22T02:30:54.752Z,39.40
2018-04-22T02:33:21.196Z,37.17
2018-04-22T02:35:47.602Z,42.33
2018-04-22T02:38:14.718Z,44.83
2018-04-22T02:40:41.101Z,40.80
2018-04-22T02:43:07.565Z,38.77
2018-04-22T02:45:33.949Z,40.40
2018-04-22T02:48:01.074Z,36.03
2018-04-22T02:50:27.497Z,41.40
2018-04-22T02:52:54.653Z,37.50
2018-04-22T02:55:21.052Z,42.53
2018-04-22T02:57:47.472Z,37.03
2018-04-22T03:00:13.860Z,43.17
2018-04-22T03:02:40.253Z,34.70
2018-04-22T03:05:06.720Z,36.20
2018-04-22T03:07:33.115Z,37.20
2018-04-22T03:09:59.505Z,46.57
2018-04-22T03:12:26.685Z,40.77
2018-04-22T03:14:53.100Z,40.77
2018-04-22T03:17:20.319Z,40.67
2018-04-22T03:19:47.536Z,38.73
2018-04-22T03:22:14.002Z,39.17
2018-04-22T03:24:40.412Z,38.63
2018-04-22T03:27:06.869Z,40.77
2018-04-22T03:29:33.769Z,37.10
2018-04-22T03:32:00.149Z,39.60
2018-04-22T03:34:26.611Z,40.60
2018-04-22T03:36:53.737Z,38.57
2018-04-22T03:39:20.187Z,39.50
2018-04-22T03:41:47.368Z,42.27
2018-04-22T03:44:13.745Z,39.53
2018-04-22T03:46:40.137Z,43.10
2018-04-22T03:49:06.581Z,43.03
2018-04-22T03:51:32.976Z,45.57
2018-04-22T03:53:59.480Z,41.87
2018-04-22T03:56:26.005Z,43.23
2018-04-22T03:58:52.403Z,39.80
2018-04-22T04:01:18.785Z,41.50
2018-04-22T04:03:45.201Z,41.60
2018-04-22T04:06:11.626Z,43.67
2018-04-22T04:08:38.079Z,40.97
2018-04-22T04:11:05.992Z,42.77
2018-04-22T04:13:32.377Z,42.80
2018-04-22T04:15:58.780Z,43.10
2018-04-22T04:21:48.772Z,40.70
2018-04-22T04:27:40.924Z,41.83
2018-04-22T04:30:07.378Z,38.37
2018-04-22T04:32:33.764Z,36.50
2018-04-22T04:35:00.912Z,33.77
2018-04-22T04:37:28.140Z,35.20
2018-04-22T04:39:54.541Z,39.67
2018-04-22T04:42:20.930Z,36.17
2018-04-22T04:44:48.086Z,34.63
2018-04-22T04:47:14.513Z,39.10
2018-04-22T04:49:41.657Z,44.43
2018-04-22T04:52:08.809Z,37.63
2018-04-22T04:54:35.973Z,40.43
2018-04-22T04:57:03.109Z,40.20
2018-04-22T04:59:30.325Z,37.00
2018-04-22T05:01:57.492Z,38.90
2018-04-22T05:04:23.861Z,39.20
2018-04-22T05:06:50.280Z,39.10
2018-04-22T05:09:16.700Z,40.13
2018-04-22T05:11:43.132Z,41.67
2018-04-22T05:14:09.540Z,39.30
2018-04-22T05:16:35.971Z,40.10
2018-04-22T05:19:02.417Z,36.10
2018-04-22T05:21:28.855Z,34.17
2018-04-22T05:23:55.245Z,34.80
2018-04-22T05:26:21.716Z,35.50
2018-04-22T05:28:48.161Z,34.83
2018-04-22T05:31:14.561Z,33.80
2018-04-22T05:33:41.732Z,30.53
2018-04-22T05:36:08.942Z,30.83
2018-04-22T05:38:35.315Z,32.13
2018-04-22T05:41:01.718Z,35.17
2018-04-22T05:43:28.927Z,29.60
2018-04-22T05:45:55.338Z,32.33
2018-04-22T05:48:21.724Z,30.90
2018-04-22T05:50:48.144Z,30.80
2018-04-22T05:53:14.522Z,28.30
2018-04-22T05:55:40.961Z,29.87
2018-04-22T05:58:07.412Z,29.37
2018-04-22T06:00:34.544Z,31.30
2018-04-22T06:03:02.441Z,36.73
2018-04-22T06:05:28.877Z,34.13
2018-04-22T06:07:56.015Z,29.80
2018-04-22T06:10:22.392Z,31.60
2018-04-22T06:12:48.805Z,27.83
2018-04-22T06:15:15.294Z,31.43
2018-04-22T06:17:41.717Z,28.97
2018-04-22T06:20:08.122Z,27.80
2018-04-22T06:22:34.562Z,28.87
2018-04-22T06:25:00.952Z,29.40
2018-04-22T06:27:28.097Z,28.90
2018-04-22T06:29:55.245Z,31.60
2018-04-22T06:32:22.380Z,29.37
2018-04-22T06:34:49.581Z,35.10
2018-04-22T06:37:16.001Z,28.47
2018-04-22T06:39:43.118Z,27.03
2018-04-22T06:42:09.543Z,27.33
2018-04-22T06:44:35.963Z,29.43
2018-04-22T06:47:02.354Z,25.47
2018-04-22T06:49:28.791Z,27.27
2018-04-22T06:51:55.918Z,25.10
2018-04-22T06:54:23.052Z,27.73
2018-04-22T06:56:49.442Z,24.93
2018-04-22T06:59:15.862Z,25.63
2018-04-22T07:01:42.273Z,22.70
2018-04-22T07:04:08.772Z,23.33
2018-04-22T07:06:35.184Z,21.63
2018-04-22T07:09:01.578Z,21.23
2018-04-22T07:11:30.697Z,21.33
2018-04-22T07:14:08.899Z,20.43
2018-04-22T07:16:36.711Z,21.07
2018-04-22T07:19:03.173Z,20.43
2018-04-22T07:21:30.329Z,20.40
2018-04-22T07:23:56.800Z,21.93
2018-04-22T07:26:23.213Z,19.57
2018-04-22T07:28:49.612Z,18.50
2018-04-22T07:31:16.357Z,20.57
2018-04-22T07:33:43.504Z,25.20
2018-04-22T07:36:10.734Z,19.93
2018-04-22T07:38:37.189Z,18.03
2018-04-22T07:41:04.363Z,21.43
2018-04-22T07:43:30.761Z,18.13
2018-04-22T07:45:57.925Z,16.30
2018-04-22T07:48:25.916Z,14.53
2018-04-22T07:50:53.041Z,14.30
2018-04-22T07:53:19.553Z,15.70
2018-04-22T07:55:46.717Z,15.40
2018-04-22T07:58:13.117Z,15.03
2018-04-22T08:00:39.532Z,12.93
2018-04-22T08:03:05.928Z,18.63
2018-04-22T08:05:33.156Z,12.07
2018-04-22T08:07:59.654Z,12.73
2018-04-22T08:10:26.102Z,11.37
2018-04-22T08:12:52.555Z,13.83
2018-04-22T08:15:19.096Z,10.13
2018-04-22T08:17:45.526Z,10.83
2018-04-22T08:20:11.939Z,9.65
2018-04-22T08:22:38.492Z,9.18
2018-04-22T08:25:04.890Z,14.93
2018-04-22T08:27:31.278Z,8.20
2018-04-22T08:29:58.432Z,8.07
2018-04-22T08:32:24.841Z,8.18
2018-04-22T08:34:52.097Z,7.45
2018-04-22T08:37:18.533Z,6.95
2018-04-22T08:39:44.942Z,7.72
2018-04-22T08:42:11.358Z,11.07
2018-04-22T08:44:37.791Z,9.43
2018-04-22T08:47:04.208Z,7.20
2018-04-22T08:49:30.622Z,8.85
2018-04-22T08:51:57.121Z,11.40
2018-04-22T08:54:23.528Z,9.27
2018-04-22T08:56:49.941Z,10.30
2018-04-22T08:59:16.386Z,12.97
2018-04-22T09:01:42.837Z,11.00
2018-04-22T09:04:09.248Z,11.67
2018-04-22T09:06:35.826Z,12.73
2018-04-22T09:09:02.292Z,13.93
2018-04-22T09:11:28.695Z,13.20
2018-04-22T09:13:55.962Z,12.90
2018-04-22T09:16:23.170Z,17.47
2018-04-22T09:18:49.549Z,22.53
2018-04-22T09:21:16.713Z,15.97
2018-04-22T09:23:43.214Z,14.33
2018-04-22T09:26:09.612Z,14.60
2018-04-22T09:28:36.028Z,13.37
2018-04-22T09:31:02.449Z,14.63
2018-04-22T09:33:28.860Z,11.93
2018-04-22T09:35:55.268Z,24.00
2018-04-22T09:38:21.717Z,25.30
2018-04-22T09:40:48.875Z,12.53
2018-04-22T09:43:16.041Z,10.40
2018-04-22T09:45:43.184Z,14.00
2018-04-22T09:48:09.623Z,13.83
2018-04-22T09:50:36.059Z,15.77
2018-04-22T09:53:02.496Z,21.10
2018-04-22T09:55:28.969Z,12.10
2018-04-22T09:57:55.528Z,17.70
2018-04-22T10:00:28.029Z,13.60
2018-04-22T10:02:55.205Z,21.40
2018-04-22T10:05:21.725Z,15.20
2018-04-22T10:07:48.129Z,11.77
2018-04-22T10:10:15.321Z,16.63
2018-04-22T10:12:42.086Z,16.93
2018-04-22T10:15:08.513Z,10.33
2018-04-22T10:17:34.960Z,16.77
2018-04-22T10:20:01.364Z,16.40
2018-04-22T10:22:27.778Z,11.53
2018-04-22T10:24:54.283Z,32.37
2018-04-22T10:27:21.437Z,18.00
2018-04-22T10:29:48.616Z,19.17
2018-04-22T10:32:15.073Z,9.80
2018-04-22T10:34:41.581Z,12.10
2018-04-22T10:37:08.718Z,15.07
2018-04-22T10:39:35.889Z,13.20
2018-04-22T10:42:02.460Z,24.67
2018-04-22T10:44:29.557Z,14.73
2018-04-22T10:46:56.029Z,14.80
2018-04-22T10:49:23.239Z,14.90
2018-04-22T10:51:49.923Z,25.00
2018-04-22T10:54:16.426Z,16.80
2018-04-22T10:56:42.892Z,21.73
2018-04-22T10:59:09.493Z,17.43
2018-04-22T11:01:35.917Z,10.23
2018-04-22T11:04:03.059Z,13.60
2018-04-22T11:06:29.479Z,28.33
2018-04-22T11:08:55.911Z,10.57
2018-04-22T11:11:22.307Z,19.70
2018-04-22T11:13:49.317Z,20.43
2018-04-22T11:16:16.557Z,16.07
2018-04-22T11:18:43.693Z,16.47
2018-04-22T11:21:10.083Z,13.33
2018-04-22T11:23:36.556Z,11.30
2018-04-22T11:26:03.018Z,16.40
2018-04-22T11:28:29.410Z,16.67
2018-04-22T11:30:55.858Z,17.70
2018-04-22T11:33:22.252Z,17.23
2018-04-22T11:35:48.617Z,26.87
2018-04-22T11:38:15.853Z,39.13
2018-04-22T11:40:42.313Z,42.53
2018-04-22T11:43:08.761Z,24.97
2018-04-22T11:45:35.926Z,18.25
2018-04-22T11:48:03.485Z,15.23
2018-04-22T11:50:29.857Z,22.03
2018-04-22T11:52:56.315Z,28.93
2018-04-22T11:55:22.745Z,21.20
2018-04-22T11:57:49.154Z,16.07
2018-04-22T12:00:15.823Z,10.97
2018-04-22T12:02:42.987Z,15.03
2018-04-22T12:05:09.364Z,27.13
2018-04-22T12:07:36.611Z,18.63
2018-04-22T12:10:03.079Z,34.30
2018-04-22T12:12:29.550Z,14.30
2018-04-22T12:14:58.574Z,13.73
2018-04-22T12:17:25.266Z,13.53
2018-04-22T12:19:52.478Z,11.32
2018-04-22T12:22:18.903Z,15.17
2018-04-22T12:24:45.324Z,15.27
2018-04-22T12:27:11.810Z,19.40
2018-04-22T12:29:39.127Z,11.40
2018-04-22T12:32:05.576Z,43.87
2018-04-22T12:34:32.017Z,13.80
2018-04-22T12:36:58.617Z,14.97
2018-04-22T12:39:25.007Z,14.90
2018-04-22T12:41:51.499Z,17.53
2018-04-22T12:44:18.012Z,18.97
2018-04-22T12:46:44.456Z,8.90
2018-04-22T12:49:10.893Z,23.13
2018-04-22T12:51:37.330Z,12.83
2018-04-22T12:54:03.728Z,20.33
2018-04-22T12:56:30.880Z,7.30
2018-04-22T12:58:58.060Z,11.47
2018-04-22T13:01:24.453Z,25.17
2018-04-22T13:03:51.692Z,8.40
2018-04-22T13:06:19.057Z,20.43
2018-04-22T13:08:46.205Z,13.07
2018-04-22T13:11:13.333Z,15.37
2018-04-22T13:13:40.529Z,14.80
2018-04-22T13:16:06.991Z,23.07
2018-04-22T13:18:33.546Z,15.13
2018-04-22T13:20:59.990Z,10.63
2018-04-22T13:23:26.429Z,8.37
2018-04-22T13:25:53.589Z,21.47
2018-04-22T13:28:20.766Z,9.07
2018-04-22T13:30:47.178Z,10.17
2018-04-22T13:33:14.318Z,11.13
2018-04-22T13:35:40.723Z,12.13
2018-04-22T13:38:07.137Z,9.07
2018-04-22T13:40:33.584Z,8.13
2018-04-22T13:43:00.016Z,14.90
2018-04-22T13:45:26.481Z,6.60
2018-04-22T13:47:53.641Z,15.03
2018-04-22T13:50:20.947Z,9.00
2018-04-22T13:52:47.385Z,7.27
2018-04-22T13:55:13.780Z,11.73
2018-04-22T13:57:40.219Z,11.60
2018-04-22T14:00:06.666Z,18.07
2018-04-22T14:02:33.116Z,15.50
2018-04-22T14:04:59.578Z,6.73
2018-04-22T14:07:25.977Z,11.33
2018-04-22T14:09:52.349Z,14.70
2018-04-22T14:12:18.779Z,8.80
2018-04-22T14:14:46.108Z,10.00
2018-04-22T14:17:13.728Z,10.50
2018-04-22T14:19:41.578Z,8.93
2018-04-22T14:22:07.964Z,20.83
2018-04-22T14:24:34.409Z,9.30
2018-04-22T14:27:00.842Z,8.50
2018-04-22T14:29:27.245Z,11.50
2018-04-22T14:31:53.672Z,4.67
2018-04-22T14:34:20.096Z,8.03
2018-04-22T14:36:46.520Z,6.03
2018-04-22T14:39:13.022Z,5.40
2018-04-22T14:41:39.522Z,6.43
2018-04-22T14:44:18.171Z,11.17
2018-04-22T14:46:44.647Z,9.93
2018-04-22T14:49:11.168Z,8.00
2018-04-22T14:51:38.325Z,10.07
2018-04-22T14:54:04.793Z,11.23
2018-04-22T14:56:31.227Z,6.10
2018-04-22T14:58:57.702Z,9.33
2018-04-22T15:01:24.882Z,10.00
2018-04-22T15:03:51.288Z,27.40
2018-04-22T15:06:17.709Z,5.40
2018-04-22T15:08:44.175Z,7.63
2018-04-22T15:11:11.406Z,10.47
2018-04-22T15:13:37.839Z,6.83
2018-04-22T15:16:04.302Z,18.47
2018-04-22T15:18:30.749Z,6.97
2018-04-22T15:20:57.191Z,12.70
2018-04-22T15:23:23.640Z,11.87
2018-04-22T15:25:50.092Z,11.53
2018-04-22T15:28:16.498Z,10.67
2018-04-22T15:30:42.970Z,7.73
2018-04-22T15:33:09.406Z,5.90
2018-04-22T15:35:35.801Z,9.50
2018-04-22T15:38:02.525Z,9.73
2018-04-22T15:40:29.014Z,13.10
2018-04-22T15:42:55.415Z,9.13
2018-04-22T15:45:21.845Z,9.07
2018-04-22T15:47:48.293Z,20.23
2018-04-22T15:50:14.703Z,11.00
2018-04-22T15:52:41.851Z,12.00
2018-04-22T15:55:08.441Z,10.37
2018-04-22T15:57:35.075Z,11.00
2018-04-22T16:00:01.545Z,9.10
2018-04-22T16:02:27.951Z,9.87
2018-04-22T16:04:54.466Z,19.20
2018-04-22T16:07:20.906Z,15.20
2018-04-22T16:09:47.298Z,5.10
2018-04-22T16:12:13.717Z,6.57
2018-04-22T16:14:40.256Z,57.77
2018-04-22T16:17:06.753Z,50.53
2018-04-22T16:19:33.944Z,14.03
2018-04-22T16:22:00.525Z,9.60
2018-04-22T16:24:27.058Z,10.00
2018-04-22T16:26:54.240Z,74.30
2018-04-22T16:29:20.707Z,28.87
2018-04-22T16:31:47.176Z,26.47
2018-04-22T16:34:13.646Z,11.17
2018-04-22T16:36:40.125Z,9.50
2018-04-22T16:39:06.577Z,13.43
2018-04-22T16:41:33.005Z,5.87
2018-04-22T16:43:59.550Z,12.53
2018-04-22T16:46:25.969Z,5.20
2018-04-22T16:48:53.309Z,9.70
2018-04-22T16:51:19.743Z,6.40
2018-04-22T16:53:46.147Z,8.80
2018-04-22T16:56:12.606Z,6.37
2018-04-22T16:58:39.054Z,7.13
2018-04-22T17:01:05.484Z,11.43
2018-04-22T17:03:32.140Z,7.97
2018-04-22T17:05:58.645Z,6.30
2018-04-22T17:08:25.123Z,8.87
2018-04-22T17:10:51.645Z,7.10
2018-04-22T17:13:18.067Z,11.47
2018-04-22T17:15:44.478Z,7.53
2018-04-22T17:18:10.944Z,7.07
2018-04-22T17:20:37.498Z,6.03
2018-04-22T17:23:03.883Z,14.30
2018-04-22T17:25:30.299Z,6.30
2018-04-22T17:27:56.806Z,12.67
2018-04-22T17:30:23.982Z,5.50
2018-04-22T17:32:50.387Z,9.90
2018-04-22T17:35:17.569Z,9.50
2018-04-22T17:37:43.969Z,9.23
2018-04-22T17:40:11.129Z,7.73
2018-04-22T17:42:37.631Z,7.40
2018-04-22T17:45:04.830Z,8.30
2018-04-22T17:47:31.296Z,11.77
2018-04-22T17:49:57.780Z,14.50
2018-04-22T17:52:24.194Z,5.77
2018-04-22T17:54:51.404Z,12.30
2018-04-22T17:57:17.978Z,9.03
2018-04-22T17:59:45.126Z,41.07
2018-04-22T18:02:11.601Z,16.33
2018-04-22T18:04:38.087Z,12.67
2018-04-22T18:07:04.539Z,17.53
2018-04-22T18:09:30.971Z,14.53
2018-04-22T18:11:58.171Z,12.67
2018-04-22T18:14:24.665Z,8.33
2018-04-22T18:16:51.861Z,12.80
2018-04-22T18:19:18.312Z,12.50
2018-04-22T18:21:44.705Z,12.67
2018-04-22T18:24:11.130Z,7.87
2018-04-22T18:26:37.581Z,9.00
2018-04-22T18:29:04.001Z,10.10
2018-04-22T18:31:30.489Z,9.70
2018-04-22T18:33:56.938Z,6.90
2018-04-22T18:36:24.126Z,10.47
2018-04-22T18:38:50.541Z,10.03
2018-04-22T18:41:17.713Z,9.67
2018-04-22T18:43:44.116Z,14.83
2018-04-22T18:46:11.275Z,12.17
2018-04-22T18:48:37.853Z,10.33
2018-04-22T18:51:04.301Z,11.53
2018-04-22T18:53:30.720Z,12.97
2018-04-22T18:55:57.207Z,6.97
2018-04-22T18:58:23.660Z,6.57
2018-04-22T19:00:50.142Z,12.10
2018-04-22T19:03:16.636Z,10.50
2018-04-22T19:05:43.048Z,17.00
2018-04-22T19:08:09.444Z,11.53
2018-04-22T19:10:35.879Z,17.83
2018-04-22T19:13:02.248Z,12.57
2018-04-22T19:15:28.680Z,11.73
2018-04-22T19:17:55.897Z,15.87
2018-04-22T19:20:22.309Z,10.50
2018-04-22T19:22:48.767Z,16.67
2018-04-22T19:25:15.327Z,13.10
2018-04-22T19:27:42.460Z,13.67
2018-04-22T19:30:08.902Z,15.33
2018-04-22T19:32:35.446Z,14.63
2018-04-22T19:35:01.868Z,11.20
2018-04-22T19:37:29.050Z,9.80
2018-04-22T19:39:55.505Z,14.70
2018-04-22T19:42:21.892Z,12.60
2018-04-22T19:44:49.961Z,16.70
2018-04-22T19:47:17.234Z,11.83
2018-04-22T19:49:43.655Z,8.77
2018-04-22T19:52:10.130Z,44.17
2018-04-22T19:54:36.642Z,19.37
2018-04-22T19:57:03.280Z,24.30
2018-04-22T19:59:30.401Z,17.47
2018-04-22T20:01:57.015Z,16.50
2018-04-22T20:04:23.655Z,24.73
2018-04-22T20:06:50.084Z,23.00
2018-04-22T20:09:16.564Z,14.53
2018-04-22T20:11:43.089Z,14.60
2018-04-22T20:14:09.535Z,24.40
2018-04-22T20:16:36.026Z,18.67
2018-04-22T20:19:03.380Z,10.03
2018-04-22T20:21:30.734Z,12.03
2018-04-22T20:23:57.213Z,14.00
2018-04-22T20:26:23.670Z,19.13
2018-04-22T20:28:50.089Z,16.30
2018-04-22T20:31:16.593Z,16.43
2018-04-22T20:33:43.092Z,16.13
2018-04-22T20:36:09.639Z,17.83
2018-04-22T20:38:36.095Z,9.57
2018-04-22T20:41:03.264Z,15.00
2018-04-22T20:43:29.863Z,9.60
2018-04-22T20:45:56.370Z,35.47
2018-04-22T20:48:22.794Z,25.00
2018-04-22T20:50:49.342Z,12.13
2018-04-22T20:53:15.862Z,16.37
2018-04-22T20:55:42.339Z,14.50
2018-04-22T20:58:09.518Z,12.90
2018-04-22T21:00:35.985Z,15.30
2018-04-22T21:03:02.557Z,12.40
2018-04-22T21:05:28.958Z,9.33
2018-04-22T21:07:55.377Z,12.27
2018-04-22T21:10:21.836Z,14.53
2018-04-22T21:12:48.240Z,25.30
2018-04-22T21:15:14.763Z,12.93
2018-04-22T21:17:41.186Z,13.23
2018-04-22T21:20:07.639Z,10.03
2018-04-22T21:22:34.118Z,8.00
2018-04-22T21:25:00.562Z,9.43
2018-04-22T21:27:27.762Z,10.30
2018-04-22T21:29:54.452Z,14.77
2018-04-22T21:32:20.966Z,13.07
2018-04-22T21:34:47.440Z,10.70
2018-04-22T21:37:13.922Z,14.03
2018-04-22T21:39:40.321Z,9.90
2018-04-22T21:42:06.729Z,7.90
2018-04-22T21:44:33.893Z,12.33
2018-04-22T21:47:01.041Z,7.73
2018-04-22T21:49:28.193Z,8.30
2018-04-22T21:51:55.375Z,13.33
2018-04-22T21:54:21.803Z,9.57
2018-04-22T21:56:48.288Z,13.13
2018-04-22T21:59:14.782Z,40.07
2018-04-22T22:01:41.254Z,9.63
2018-04-22T22:04:07.666Z,16.60
2018-04-22T22:06:35.044Z,13.93
2018-04-22T22:09:01.478Z,15.60
2018-04-22T22:11:28.647Z,11.83
2018-04-22T22:13:55.854Z,8.03
2018-04-22T22:16:22.237Z,7.80
2018-04-22T22:18:49.405Z,20.17
2018-04-22T22:21:15.893Z,6.13
2018-04-22T22:23:42.386Z,8.40
2018-04-22T22:26:08.792Z,9.80
2018-04-22T22:28:35.237Z,13.07
2018-04-22T22:31:01.646Z,8.00
2018-04-22T22:33:29.464Z,7.83
2018-04-22T22:35:55.878Z,15.33
2018-04-22T22:38:22.358Z,6.10
2018-04-22T22:40:50.242Z,8.50
2018-04-22T22:43:17.786Z,10.03
2018-04-22T22:45:45.678Z,13.63
2018-04-22T22:48:12.052Z,8.93
2018-04-22T22:50:39.433Z,9.67
2018-04-22T22:53:05.859Z,8.13
2018-04-22T22:55:32.321Z,11.87
2018-04-22T22:57:58.746Z,9.17
2018-04-22T23:00:25.149Z,9.30
2018-04-22T23:02:51.571Z,9.27
2018-04-22T23:05:18.056Z,15.70
2018-04-22T23:07:45.939Z,11.80
2018-04-22T23:10:13.156Z,10.13
2018-04-22T23:12:39.692Z,6.60
2018-04-22T23:15:06.094Z,13.77
2018-04-22T23:17:32.493Z,11.57
2018-04-22T23:20:00.654Z,13.90
2018-04-22T23:22:27.168Z,12.43
2018-04-22T23:24:53.658Z,12.07
2018-04-22T23:27:20.131Z,10.30
2018-04-22T23:29:46.521Z,6.93
2018-04-22T23:32:13.045Z,11.37
2018-04-22T23:34:39.473Z,6.93
2018-04-22T23:37:05.864Z,6.63
2018-04-22T23:39:33.036Z,8.83
2018-04-22T23:42:00.212Z,11.53
2018-04-22T23:44:26.704Z,11.23
2018-04-22T23:46:54.576Z,17.50
2018-04-22T23:49:21.002Z,10.70
2018-04-22T23:51:47.408Z,7.37
2018-04-22T23:54:13.868Z,11.27
2018-04-22T23:56:40.348Z,7.90
2018-04-22T23:59:06.765Z,10.77
